createdAt,value
2019-06-08T00:00:41.940Z,2.53
2019-06-08T00:03:13.072Z,3.47
2019-06-08T00:05:42.814Z,4.37
2019-06-08T00:08:12.966Z,3.10
2019-06-08T00:10:42.404Z,4.63
2019-06-08T00:13:13.124Z,2.40
2019-06-08T00:15:42.492Z,2.70
2019-06-08T00:18:13.178Z,4.20
2019-06-08T00:20:42.615Z,3.63
2019-06-08T00:23:12.007Z,3.30
2019-06-08T00:25:41.420Z,4.57
2019-06-08T00:28:10.826Z,3.40
2019-06-08T00:30:41.478Z,3.57
2019-06-08T00:33:10.978Z,4.80
2019-06-08T00:35:40.404Z,5.90
2019-06-08T00:38:09.834Z,6.43
2019-06-08T00:40:39.238Z,3.23
2019-06-08T00:43:08.660Z,3.90
2019-06-08T00:45:38.056Z,3.20
2019-06-08T00:48:07.473Z,7.30
2019-06-08T00:50:36.903Z,4.67
2019-06-08T00:53:06.309Z,4.80
2019-06-08T00:55:35.714Z,3.07
2019-06-08T00:58:05.197Z,2.87
2019-06-08T01:00:34.659Z,4.57
2019-06-08T01:03:04.160Z,2.87
2019-06-08T01:05:33.551Z,3.10
2019-06-08T01:08:03.013Z,3.57
2019-06-08T01:10:32.386Z,4.33
2019-06-08T01:13:01.809Z,2.87
2019-06-08T01:15:34.272Z,2.93
2019-06-08T01:18:04.216Z,3.23
2019-06-08T01:20:33.421Z,2.77
2019-06-08T01:23:02.834Z,5.43
2019-06-08T01:25:32.236Z,5.23
2019-06-08T01:28:01.672Z,2.77
2019-06-08T01:30:31.294Z,5.17
2019-06-08T01:33:00.700Z,6.23
2019-06-08T01:35:30.936Z,4.17
2019-06-08T01:38:00.382Z,4.77
2019-06-08T01:40:29.797Z,3.43
2019-06-08T01:42:59.186Z,5.03
2019-06-08T01:45:32.826Z,6.07
2019-06-08T01:48:18.573Z,5.80
2019-06-08T01:50:35.553Z,3.00
2019-06-08T01:53:05.512Z,3.40
2019-06-08T01:55:34.953Z,10.90
2019-06-08T01:58:04.495Z,6.47
2019-06-08T02:00:40.578Z,6.10
2019-06-08T02:03:05.145Z,6.47
2019-06-08T02:05:34.605Z,6.07
2019-06-08T02:08:04.006Z,7.07
2019-06-08T02:10:33.436Z,2.73
2019-06-08T02:13:02.823Z,5.83
2019-06-08T02:15:33.770Z,6.20
2019-06-08T02:18:03.206Z,6.27
2019-06-08T02:20:33.016Z,4.77
2019-06-08T02:23:02.414Z,6.90
2019-06-08T02:25:33.428Z,14.10
2019-06-08T02:28:03.236Z,7.83
2019-06-08T02:30:36.494Z,5.87
2019-06-08T02:33:04.919Z,5.17
2019-06-08T02:35:35.422Z,5.53
2019-06-08T02:38:05.508Z,5.50
2019-06-08T02:40:36.910Z,6.50
2019-06-08T02:43:06.535Z,7.33
2019-06-08T02:45:37.043Z,8.93
2019-06-08T02:48:07.380Z,7.77
2019-06-08T02:50:53.872Z,4.73
2019-06-08T02:53:24.499Z,10.17
2019-06-08T02:55:54.570Z,8.30
2019-06-08T02:58:24.287Z,10.10
2019-06-08T03:00:55.967Z,7.57
2019-06-08T03:03:27.104Z,9.63
2019-06-08T03:05:59.574Z,7.20
2019-06-08T03:08:30.172Z,7.17
2019-06-08T03:10:59.767Z,6.80
2019-06-08T03:13:33.389Z,5.30
2019-06-08T03:16:02.750Z,4.50
2019-06-08T03:18:33.651Z,7.87
2019-06-08T03:21:03.197Z,5.97
2019-06-08T03:23:34.231Z,7.43
2019-06-08T03:26:03.694Z,8.00
2019-06-08T03:28:34.980Z,7.87
2019-06-08T03:31:04.210Z,8.23
2019-06-08T03:33:37.865Z,6.63
2019-06-08T03:36:04.810Z,9.53
2019-06-08T03:38:35.662Z,7.10
2019-06-08T03:41:05.166Z,4.13
2019-06-08T03:43:35.327Z,5.27
2019-06-08T03:46:05.164Z,6.73
2019-06-08T03:48:35.031Z,5.93
2019-06-08T03:51:05.000Z,6.73
2019-06-08T03:53:35.700Z,11.10
2019-06-08T03:56:05.585Z,7.93
2019-06-08T03:58:36.574Z,6.33
2019-06-08T04:01:06.108Z,9.57
2019-06-08T04:03:35.493Z,6.43
2019-06-08T04:06:04.912Z,6.80
2019-06-08T04:08:34.304Z,8.60
2019-06-08T04:11:03.788Z,6.10
2019-06-08T04:13:33.186Z,5.70
2019-06-08T04:16:02.642Z,10.30
2019-06-08T04:18:32.038Z,8.70
2019-06-08T04:21:01.460Z,8.37
2019-06-08T04:23:30.853Z,7.63
2019-06-08T04:26:00.263Z,6.87
2019-06-08T04:28:29.660Z,8.93
2019-06-08T04:30:59.087Z,7.60
2019-06-08T04:33:28.497Z,5.90
2019-06-08T04:35:57.881Z,8.00
2019-06-08T04:38:27.275Z,10.20
2019-06-08T04:40:56.693Z,5.03
2019-06-08T04:43:26.251Z,8.77
2019-06-08T04:45:55.710Z,6.83
2019-06-08T04:48:25.098Z,8.63
2019-06-08T04:50:56.833Z,5.87
2019-06-08T04:53:26.235Z,11.70
2019-06-08T04:55:55.655Z,7.73
2019-06-08T04:58:25.083Z,7.70
2019-06-08T05:00:54.489Z,8.50
2019-06-08T05:03:23.961Z,8.57
2019-06-08T05:05:53.381Z,8.27
2019-06-08T05:08:22.782Z,6.40
2019-06-08T05:10:52.190Z,6.00
2019-06-08T05:13:21.589Z,12.03
2019-06-08T05:15:51.007Z,11.63
2019-06-08T05:18:20.398Z,7.93
2019-06-08T05:20:51.379Z,8.23
2019-06-08T05:23:20.951Z,7.73
2019-06-08T05:25:50.379Z,6.83
2019-06-08T05:28:19.783Z,10.00
2019-06-08T05:30:49.635Z,9.07
2019-06-08T05:33:19.066Z,7.50
2019-06-08T05:35:49.713Z,6.93
2019-06-08T05:38:19.177Z,7.07
2019-06-08T05:40:49.771Z,11.37
2019-06-08T05:43:19.387Z,4.97
2019-06-08T05:45:49.943Z,11.93
2019-06-08T05:48:19.367Z,8.43
2019-06-08T05:51:00.182Z,11.77
2019-06-08T05:53:19.877Z,9.30
2019-06-08T05:55:50.167Z,6.80
2019-06-08T05:58:19.661Z,5.57
2019-06-08T06:00:50.498Z,5.40
2019-06-08T06:03:20.031Z,9.90
2019-06-08T06:05:50.629Z,12.20
2019-06-08T06:08:20.242Z,8.53
2019-06-08T06:10:51.010Z,9.10
2019-06-08T06:13:20.722Z,10.53
2019-06-08T06:15:51.713Z,8.10
2019-06-08T06:18:21.203Z,7.93
2019-06-08T06:20:51.512Z,10.80
2019-06-08T06:23:21.133Z,7.93
2019-06-08T06:25:51.791Z,6.30
2019-06-08T06:28:21.221Z,10.80
2019-06-08T06:30:52.089Z,9.70
2019-06-08T06:33:21.598Z,9.20
2019-06-08T06:35:52.113Z,9.90
2019-06-08T06:38:21.595Z,11.10
2019-06-08T06:40:52.230Z,5.97
2019-06-08T06:43:21.855Z,9.87
2019-06-08T06:45:52.198Z,6.17
2019-06-08T06:48:23.627Z,9.17
2019-06-08T06:50:52.686Z,9.03
2019-06-08T06:53:22.092Z,8.67
2019-06-08T06:55:51.495Z,10.57
2019-06-08T06:58:20.915Z,8.97
2019-06-08T07:00:51.502Z,11.97
2019-06-08T07:03:21.772Z,9.93
2019-06-08T07:05:51.967Z,7.07
2019-06-08T07:08:21.390Z,7.10
2019-06-08T07:10:50.879Z,10.27
2019-06-08T07:13:20.335Z,8.53
2019-06-08T07:15:53.132Z,10.07
2019-06-08T07:18:20.967Z,12.53
2019-06-08T07:20:50.342Z,8.60
2019-06-08T07:23:19.762Z,7.63
2019-06-08T07:25:50.338Z,7.03
2019-06-08T07:28:19.866Z,11.40
2019-06-08T07:30:49.253Z,12.83
2019-06-08T07:33:18.677Z,8.93
2019-06-08T07:35:48.814Z,10.83
2019-06-08T07:38:19.249Z,8.63
2019-06-08T07:40:49.863Z,7.40
2019-06-08T07:43:19.369Z,8.83
2019-06-08T07:45:49.845Z,8.50
2019-06-08T07:48:19.274Z,10.77
2019-06-08T07:50:50.189Z,8.23
2019-06-08T07:53:19.691Z,8.23
2019-06-08T07:55:50.072Z,10.13
2019-06-08T07:58:19.876Z,9.27
2019-06-08T08:00:50.430Z,7.80
2019-06-08T08:03:20.390Z,7.67
2019-06-08T08:05:50.366Z,7.03
2019-06-08T08:08:19.812Z,5.93
2019-06-08T08:10:50.293Z,10.90
2019-06-08T08:13:19.702Z,6.67
2019-06-08T08:15:49.169Z,6.93
2019-06-08T08:18:18.591Z,5.00
2019-06-08T08:20:49.365Z,10.93
2019-06-08T08:23:18.894Z,9.07
2019-06-08T08:25:48.962Z,5.50
2019-06-08T08:28:20.138Z,6.23
2019-06-08T08:30:50.708Z,4.83
2019-06-08T08:33:20.651Z,5.87
2019-06-08T08:35:51.121Z,6.43
2019-06-08T08:38:21.190Z,7.43
2019-06-08T08:40:51.719Z,12.13
2019-06-08T08:43:23.134Z,4.23
2019-06-08T08:45:52.542Z,4.97
2019-06-08T08:48:28.230Z,5.93
2019-06-08T08:50:54.128Z,6.37
2019-06-08T08:53:23.637Z,6.60
2019-06-08T08:55:54.265Z,8.47
2019-06-08T08:58:23.725Z,5.73
2019-06-08T09:00:54.196Z,5.07
2019-06-08T09:03:29.593Z,5.30
2019-06-08T09:05:56.459Z,4.03
2019-06-08T09:08:29.454Z,6.13
2019-06-08T09:10:59.590Z,7.87
2019-06-08T09:13:28.646Z,5.30
2019-06-08T09:16:00.758Z,4.13
2019-06-08T09:18:29.145Z,3.90
2019-06-08T09:21:02.012Z,4.57
2019-06-08T09:23:29.658Z,8.63
2019-06-08T09:26:05.928Z,5.30
2019-06-08T09:28:30.156Z,5.97
2019-06-08T09:31:02.284Z,7.37
2019-06-08T09:33:30.675Z,5.47
2019-06-08T09:36:02.751Z,5.33
2019-06-08T09:38:31.235Z,4.63
2019-06-08T09:41:03.457Z,6.27
2019-06-08T09:43:31.763Z,4.77
2019-06-08T09:46:03.030Z,3.93
2019-06-08T09:48:32.256Z,5.30
2019-06-08T09:51:04.134Z,6.80
2019-06-08T09:53:37.876Z,7.40
2019-06-08T09:56:06.453Z,5.50
2019-06-08T09:58:35.015Z,5.07
2019-06-08T10:01:06.060Z,6.87
2019-06-08T10:03:35.639Z,6.07
2019-06-08T10:06:08.456Z,4.33
2019-06-08T10:08:38.578Z,7.30
2019-06-08T10:11:09.396Z,4.37
2019-06-08T10:13:39.828Z,4.30
2019-06-08T10:16:10.454Z,4.47
2019-06-08T10:18:40.272Z,2.20
2019-06-08T10:21:09.861Z,4.83
2019-06-08T10:23:41.634Z,2.70
2019-06-08T10:26:11.253Z,5.83
2019-06-08T10:28:40.684Z,5.23
2019-06-08T10:31:10.076Z,3.93
2019-06-08T10:33:40.544Z,5.23
2019-06-08T10:36:12.809Z,3.53
2019-06-08T10:38:41.621Z,6.07
2019-06-08T10:41:17.663Z,4.93
2019-06-08T10:43:42.326Z,4.23
2019-06-08T10:46:16.664Z,6.13
2019-06-08T10:48:42.845Z,4.60
2019-06-08T10:51:13.140Z,5.63
2019-06-08T10:53:48.461Z,6.00
2019-06-08T10:56:13.902Z,3.07
2019-06-08T10:58:43.292Z,3.13
2019-06-08T11:01:13.443Z,2.73
2019-06-08T11:03:43.094Z,3.90
2019-06-08T11:06:13.390Z,6.53
2019-06-08T11:08:42.967Z,3.73
2019-06-08T11:11:12.498Z,4.70
2019-06-08T11:13:41.898Z,5.37
2019-06-08T11:16:13.523Z,3.07
2019-06-08T11:18:42.425Z,3.93
2019-06-08T11:21:12.846Z,3.13
2019-06-08T11:23:42.490Z,3.60
2019-06-08T11:26:19.920Z,6.80
2019-06-08T11:28:42.993Z,4.20
2019-06-08T11:31:16.008Z,5.87
2019-06-08T11:33:43.506Z,4.30
2019-06-08T11:36:14.911Z,4.83
2019-06-08T11:38:44.085Z,3.40
2019-06-08T11:41:13.858Z,5.73
2019-06-08T11:43:43.371Z,3.87
2019-06-08T11:46:12.826Z,5.30
2019-06-08T11:48:42.201Z,5.10
2019-06-08T11:51:13.184Z,3.47
2019-06-08T11:53:42.738Z,5.57
2019-06-08T11:56:13.569Z,4.77
2019-06-08T11:58:43.472Z,4.57
2019-06-08T12:01:15.131Z,5.83
2019-06-08T12:03:43.967Z,5.00
2019-06-08T12:06:14.488Z,4.97
2019-06-08T12:08:44.044Z,6.10
2019-06-08T12:11:18.793Z,7.97
2019-06-08T12:13:44.628Z,4.07
2019-06-08T12:16:17.719Z,4.97
2019-06-08T12:18:45.142Z,5.10
2019-06-08T12:21:14.720Z,4.40
2019-06-08T12:23:44.145Z,3.30
2019-06-08T12:26:14.521Z,2.87
2019-06-08T12:28:44.122Z,4.07
2019-06-08T12:31:17.664Z,4.70
2019-06-08T12:33:44.618Z,3.50
2019-06-08T12:36:15.667Z,4.43
2019-06-08T12:38:45.115Z,4.17
2019-06-08T12:41:15.874Z,5.20
2019-06-08T12:43:47.861Z,3.43
2019-06-08T12:46:19.131Z,3.53
2019-06-08T12:48:47.613Z,5.53
2019-06-08T12:51:19.415Z,4.93
2019-06-08T12:53:49.863Z,3.90
2019-06-08T12:56:24.068Z,6.07
2019-06-08T12:58:50.756Z,3.90
2019-06-08T13:01:20.184Z,2.90
2019-06-08T13:03:49.572Z,4.43
2019-06-08T13:06:20.038Z,6.23
2019-06-08T13:08:49.454Z,5.03
2019-06-08T13:11:21.067Z,4.53
2019-06-08T13:13:49.964Z,4.17
2019-06-08T13:16:23.659Z,4.53
2019-06-08T13:18:50.559Z,4.77
2019-06-08T13:21:31.912Z,5.03
2019-06-08T13:23:51.039Z,3.50
2019-06-08T13:26:27.464Z,3.77
2019-06-08T13:28:51.543Z,3.17
2019-06-08T13:31:24.195Z,3.93
2019-06-08T13:33:52.047Z,4.27
2019-06-08T13:36:25.854Z,4.77
2019-06-08T13:38:52.548Z,4.33
2019-06-08T13:41:25.947Z,4.73
2019-06-08T13:43:53.068Z,4.37
2019-06-08T13:46:23.673Z,5.73
2019-06-08T13:48:53.157Z,3.10
2019-06-08T13:51:24.083Z,3.80
2019-06-08T13:53:53.568Z,2.87
2019-06-08T13:56:24.063Z,4.00
2019-06-08T13:58:53.474Z,2.73
2019-06-08T14:01:23.776Z,3.30
2019-06-08T14:03:53.341Z,4.83
2019-06-08T14:06:23.720Z,6.50
2019-06-08T14:08:54.310Z,3.97
2019-06-08T14:11:25.031Z,2.77
2019-06-08T14:13:54.816Z,3.90
2019-06-08T14:16:25.288Z,2.80
2019-06-08T14:18:55.406Z,5.10
2019-06-08T14:21:31.955Z,5.03
2019-06-08T14:23:55.931Z,5.00
2019-06-08T14:26:25.991Z,5.40
2019-06-08T14:28:55.431Z,4.27
2019-06-08T14:31:25.644Z,3.50
2019-06-08T14:33:55.939Z,3.23
2019-06-08T14:36:26.664Z,5.50
2019-06-08T14:39:02.045Z,3.83
2019-06-08T14:41:31.131Z,4.17
2019-06-08T14:43:58.747Z,3.17
2019-06-08T14:46:28.770Z,2.87
2019-06-08T14:48:58.727Z,3.07
2019-06-08T14:51:47.806Z,2.50
2019-06-08T14:54:22.467Z,2.33
2019-06-08T14:56:49.968Z,4.43
2019-06-08T14:59:21.453Z,3.80
2019-06-08T15:01:50.485Z,3.67
2019-06-08T15:04:23.801Z,3.43
2019-06-08T15:06:50.990Z,2.83
2019-06-08T15:09:21.329Z,2.33
2019-06-08T15:11:50.764Z,4.00
2019-06-08T15:14:21.521Z,3.20
2019-06-08T15:16:50.967Z,2.43
2019-06-08T15:19:20.587Z,5.20
2019-06-08T15:21:49.948Z,2.93
2019-06-08T15:24:20.567Z,3.27
2019-06-08T15:26:50.027Z,4.03
2019-06-08T15:29:20.698Z,4.00
2019-06-08T15:31:50.216Z,4.40
2019-06-08T15:34:19.613Z,3.77
2019-06-08T15:36:49.028Z,3.00
2019-06-08T15:39:18.432Z,2.97
2019-06-08T15:41:48.738Z,5.97
2019-06-08T15:44:21.277Z,3.17
2019-06-08T15:46:49.420Z,2.33
2019-06-08T15:49:18.837Z,3.77
2019-06-08T15:51:48.304Z,3.50
2019-06-08T15:54:17.718Z,4.60
2019-06-08T15:56:51.782Z,3.17
2019-06-08T15:59:18.224Z,3.93
2019-06-08T16:01:47.639Z,4.37
2019-06-08T16:04:17.039Z,3.50
2019-06-08T16:06:46.483Z,2.80
2019-06-08T16:09:15.876Z,3.00
2019-06-08T16:11:45.295Z,3.50
2019-06-08T16:14:14.697Z,5.17
2019-06-08T16:16:44.251Z,4.27
2019-06-08T16:19:13.639Z,2.47
2019-06-08T16:21:43.046Z,1.77
2019-06-08T16:24:12.444Z,4.53
2019-06-08T16:26:52.819Z,2.23
2019-06-08T16:29:13.015Z,3.33
2019-06-08T16:31:42.430Z,4.53
2019-06-08T16:34:11.824Z,3.47
2019-06-08T16:36:41.234Z,3.97
2019-06-08T16:39:10.625Z,3.30
2019-06-08T16:41:40.513Z,4.83
2019-06-08T16:44:09.924Z,3.70
2019-06-08T16:46:39.341Z,2.97
2019-06-08T16:49:08.741Z,3.60
2019-06-08T16:51:38.161Z,5.17
2019-06-08T16:54:07.562Z,3.53
2019-06-08T16:56:36.976Z,4.07
2019-06-08T16:59:06.366Z,2.63
2019-06-08T17:01:36.863Z,2.97
2019-06-08T17:04:06.265Z,4.97
2019-06-08T17:06:35.695Z,3.63
2019-06-08T17:09:07.002Z,4.03
2019-06-08T17:11:36.417Z,3.13
2019-06-08T17:14:05.950Z,5.67
2019-06-08T17:16:36.352Z,2.97
2019-06-08T17:19:06.009Z,3.60
2019-06-08T17:21:36.364Z,3.27
2019-06-08T17:24:05.796Z,4.53
2019-06-08T17:26:36.598Z,2.67
2019-06-08T17:29:06.114Z,3.90
2019-06-08T17:31:35.596Z,4.07
2019-06-08T17:34:04.992Z,4.47
2019-06-08T17:36:34.619Z,3.27
2019-06-08T17:39:05.047Z,4.40
2019-06-08T17:41:34.468Z,3.57
2019-06-08T17:44:03.865Z,3.30
2019-06-08T17:46:34.546Z,2.67
2019-06-08T17:49:03.957Z,3.43
2019-06-08T17:51:34.653Z,2.80
2019-06-08T17:54:04.221Z,2.00
2019-06-08T17:56:35.004Z,4.30
2019-06-08T17:59:04.781Z,2.70
2019-06-08T18:01:35.831Z,4.03
2019-06-08T18:04:07.701Z,2.60
2019-06-08T18:06:39.880Z,3.63
2019-06-08T18:09:08.554Z,3.37
2019-06-08T18:11:41.804Z,2.67
2019-06-08T18:14:10.189Z,3.90
2019-06-08T18:16:42.148Z,2.30
2019-06-08T18:19:28.521Z,4.97
2019-06-08T18:22:04.410Z,3.43
2019-06-08T18:24:29.383Z,3.20
2019-06-08T18:26:58.876Z,2.97
2019-06-08T18:29:28.338Z,3.40
2019-06-08T18:31:58.329Z,3.83
2019-06-08T18:34:28.655Z,3.43
2019-06-08T18:36:58.329Z,2.57
2019-06-08T18:39:29.833Z,2.00
2019-06-08T18:41:59.274Z,3.87
2019-06-08T18:44:29.323Z,2.87
2019-06-08T18:46:58.806Z,1.90
2019-06-08T18:49:29.039Z,2.87
2019-06-08T18:51:58.619Z,3.83
2019-06-08T18:54:28.287Z,5.23
2019-06-08T18:56:57.746Z,4.50
2019-06-08T18:59:28.658Z,2.67
2019-06-08T19:01:58.339Z,4.10
2019-06-08T19:04:30.940Z,4.43
2019-06-08T19:07:01.871Z,5.37
2019-06-08T19:09:32.205Z,3.60
2019-06-08T19:12:01.668Z,2.87
2019-06-08T19:14:31.079Z,3.40
2019-06-08T19:17:00.552Z,4.00
2019-06-08T19:19:31.438Z,4.87
2019-06-08T19:22:01.066Z,2.87
2019-06-08T19:24:30.450Z,3.83
2019-06-08T19:26:59.969Z,3.90
2019-06-08T19:29:29.351Z,4.33
2019-06-08T19:32:00.491Z,3.00
2019-06-08T19:34:33.188Z,4.47
2019-06-08T19:37:00.970Z,5.53
2019-06-08T19:39:30.374Z,3.07
2019-06-08T19:42:00.197Z,3.00
2019-06-08T19:44:29.606Z,3.80
2019-06-08T19:46:59.002Z,3.33
2019-06-08T19:49:28.454Z,3.77
2019-06-08T19:51:58.146Z,3.30
2019-06-08T19:54:27.708Z,3.60
2019-06-08T19:56:57.569Z,2.87
2019-06-08T19:59:27.620Z,2.83
2019-06-08T20:01:59.650Z,3.67
2019-06-08T20:04:28.147Z,4.37
2019-06-08T20:07:00.446Z,3.10
2019-06-08T20:09:28.651Z,4.33
2019-06-08T20:12:00.137Z,2.87
2019-06-08T20:14:29.167Z,3.77
2019-06-08T20:16:58.566Z,2.97
2019-06-08T20:19:28.079Z,3.13
2019-06-08T20:21:58.298Z,4.07
2019-06-08T20:24:28.146Z,2.93
2019-06-08T20:26:57.641Z,3.00
2019-06-08T20:29:28.267Z,5.33
2019-06-08T20:31:58.425Z,5.53
2019-06-08T20:34:27.958Z,2.37
2019-06-08T20:36:59.385Z,4.43
2019-06-08T20:39:28.466Z,4.87
2019-06-08T20:41:58.705Z,5.17
2019-06-08T20:44:30.245Z,8.00
2019-06-08T20:47:00.027Z,7.50
2019-06-08T20:49:29.443Z,5.20
2019-06-08T20:52:00.382Z,6.10
2019-06-08T20:54:30.032Z,6.43
2019-06-08T20:56:59.493Z,5.17
2019-06-08T20:59:33.162Z,7.53
2019-06-08T21:02:00.012Z,6.37
2019-06-08T21:04:29.420Z,3.93
2019-06-08T21:06:58.809Z,6.13
2019-06-08T21:09:28.246Z,5.17
2019-06-08T21:11:58.817Z,4.93
2019-06-08T21:14:28.305Z,5.20
2019-06-08T21:16:58.547Z,6.77
2019-06-08T21:19:28.422Z,6.27
2019-06-08T21:21:59.299Z,4.53
2019-06-08T21:24:28.962Z,6.33
2019-06-08T21:27:00.759Z,8.27
2019-06-08T21:29:46.962Z,8.43
2019-06-08T21:32:02.698Z,8.97
2019-06-08T21:34:31.730Z,9.53
2019-06-08T21:37:01.231Z,6.40
2019-06-08T21:39:30.666Z,9.87
2019-06-08T21:42:03.028Z,4.17
2019-06-08T21:44:31.154Z,5.10
2019-06-08T21:47:01.602Z,5.17
2019-06-08T21:49:31.215Z,5.83
2019-06-08T21:52:01.303Z,8.80
2019-06-08T21:54:30.839Z,4.57
2019-06-08T21:57:01.112Z,5.00
2019-06-08T21:59:30.613Z,4.27
2019-06-08T22:02:02.621Z,3.40
2019-06-08T22:04:31.267Z,4.67
2019-06-08T22:07:01.516Z,5.37
2019-06-08T22:09:31.760Z,7.43
2019-06-08T22:12:01.187Z,5.63
2019-06-08T22:14:30.582Z,5.47
2019-06-08T22:17:01.437Z,5.17
2019-06-08T22:19:31.048Z,5.17
2019-06-08T22:22:02.043Z,4.00
2019-06-08T22:24:31.548Z,3.17
2019-06-08T22:27:01.912Z,5.10
2019-06-08T22:29:31.370Z,5.97
2019-06-08T22:32:00.766Z,5.70
2019-06-08T22:34:30.151Z,4.60
2019-06-08T22:37:00.423Z,5.77
2019-06-08T22:39:29.852Z,3.93
2019-06-08T22:42:01.165Z,6.63
2019-06-08T22:44:30.387Z,6.97
2019-06-08T22:47:01.576Z,5.07
2019-06-08T22:49:30.910Z,6.87
2019-06-08T22:52:01.394Z,5.47
2019-06-08T22:54:31.396Z,6.27
2019-06-08T22:57:02.794Z,5.57
2019-06-08T22:59:31.907Z,5.17
2019-06-08T23:02:04.082Z,5.07
2019-06-08T23:04:32.419Z,9.13
2019-06-08T23:07:04.527Z,4.97
2019-06-08T23:09:32.927Z,6.27
2019-06-08T23:12:04.665Z,6.87
2019-06-08T23:14:33.440Z,5.13
2019-06-08T23:17:04.046Z,5.73
2019-06-08T23:19:33.953Z,4.07
2019-06-08T23:22:04.049Z,7.40
2019-06-08T23:24:33.436Z,5.17
2019-06-08T23:27:04.159Z,6.13
2019-06-08T23:29:33.725Z,7.47
2019-06-08T23:32:04.895Z,4.47
2019-06-08T23:34:34.262Z,6.27
2019-06-08T23:37:06.590Z,4.17
2019-06-08T23:39:34.773Z,6.07
2019-06-08T23:42:04.193Z,3.70
2019-06-08T23:44:33.602Z,5.03
2019-06-08T23:47:04.372Z,4.60
2019-06-08T23:49:33.799Z,5.00
2019-06-08T23:52:04.305Z,4.57
2019-06-08T23:54:34.323Z,6.97
2019-06-08T23:57:04.829Z,5.77
2019-06-08T23:59:34.275Z,3.70
